createdAt,value
2023-11-12T00:00:00.978Z,19.61
2023-11-12T00:05:04.047Z,19.49
2023-11-12T00:10:09.016Z,19.50
2023-11-12T00:15:14.531Z,19.36
2023-11-12T00:20:18.372Z,19.09
2023-11-12T00:25:22.285Z,18.76
2023-11-12T00:30:27.663Z,18.67
2023-11-12T00:35:30.577Z,18.52
2023-11-12T00:40:34.318Z,18.21
2023-11-12T00:45:40.151Z,17.85
2023-11-12T00:50:43.897Z,17.42
2023-11-12T00:55:47.892Z,16.98
2023-11-12T01:00:53.276Z,16.82
2023-11-12T01:05:56.987Z,16.71
2023-11-12T01:11:01.090Z,16.57
2023-11-12T01:16:07.022Z,16.48
2023-11-12T01:21:10.875Z,16.27
2023-11-12T01:26:14.648Z,16.32
2023-11-12T01:31:21.004Z,16.38
2023-11-12T01:36:24.725Z,16.28
2023-11-12T01:41:28.579Z,16.15
2023-11-12T01:46:35.569Z,15.98
2023-11-12T01:51:39.968Z,15.90
2023-11-12T01:56:43.958Z,15.73
2023-11-12T02:01:50.459Z,15.57
2023-11-12T02:06:54.184Z,15.51
2023-11-12T02:11:58.394Z,15.59
2023-11-12T02:17:03.725Z,15.47
2023-11-12T02:22:07.643Z,15.54
2023-11-12T02:27:13.051Z,15.48
2023-11-12T02:32:16.873Z,15.35
2023-11-12T02:37:20.600Z,15.27
2023-11-12T02:42:26.025Z,15.12
2023-11-12T02:47:29.787Z,14.89
2023-11-12T02:52:33.668Z,14.81
2023-11-12T02:57:39.099Z,14.82
2023-11-12T03:02:43.009Z,14.68
2023-11-12T03:07:46.734Z,14.58
2023-11-12T03:12:53.207Z,14.53
2023-11-12T03:17:56.959Z,14.58
2023-11-12T03:23:00.680Z,14.62
2023-11-12T03:28:06.281Z,14.41
2023-11-12T03:33:10.204Z,14.55
2023-11-12T03:38:14.032Z,14.58
2023-11-12T03:43:19.490Z,14.57
2023-11-12T03:48:24.797Z,14.33
2023-11-12T03:53:28.500Z,14.30
2023-11-12T03:58:33.863Z,14.17
2023-11-12T04:03:37.831Z,14.19
2023-11-12T04:08:41.763Z,14.17
2023-11-12T04:13:48.140Z,14.11
2023-11-12T04:18:52.090Z,13.91
2023-11-12T04:23:55.789Z,13.96
2023-11-12T04:29:01.109Z,13.87
2023-11-12T04:34:05.622Z,13.92
2023-11-12T04:39:09.327Z,13.89
2023-11-12T04:44:14.722Z,13.83
2023-11-12T04:49:18.467Z,13.72
2023-11-12T04:54:22.254Z,13.72
2023-11-12T04:59:27.617Z,13.58
2023-11-12T05:04:31.316Z,13.48
2023-11-12T05:09:35.276Z,13.46
2023-11-12T05:14:40.702Z,13.45
2023-11-12T05:19:45.378Z,13.35
2023-11-12T05:24:50.356Z,13.35
2023-11-12T05:29:55.770Z,13.13
2023-11-12T05:34:59.572Z,13.04
2023-11-12T05:40:03.308Z,13.09
2023-11-12T05:45:09.707Z,13.07
2023-11-12T05:50:13.441Z,12.97
2023-11-12T05:55:17.310Z,12.89
2023-11-12T06:00:23.022Z,12.91
2023-11-12T06:05:26.769Z,12.82
2023-11-12T06:10:31.151Z,12.80
2023-11-12T06:15:36.545Z,12.77
2023-11-12T06:20:40.262Z,12.70
2023-11-12T06:25:44.006Z,12.55
2023-11-12T06:30:50.629Z,12.61
2023-11-12T06:35:54.432Z,12.53
2023-11-12T06:40:58.121Z,12.55
2023-11-12T06:46:05.473Z,12.49
2023-11-12T06:51:09.175Z,12.38
2023-11-12T06:56:12.839Z,12.41
2023-11-12T07:01:18.215Z,12.44
2023-11-12T07:06:22.006Z,12.20
2023-11-12T07:11:25.750Z,12.28
2023-11-12T07:16:31.159Z,12.20
2023-11-12T07:21:34.890Z,12.03
2023-11-12T07:26:38.585Z,12.08
2023-11-12T07:31:44.662Z,12.01
2023-11-12T07:36:47.608Z,12.06
2023-11-12T07:41:51.306Z,11.98
2023-11-12T07:46:56.803Z,11.85
2023-11-12T07:52:00.649Z,11.83
2023-11-12T07:57:04.559Z,11.66
2023-11-12T08:02:09.907Z,11.70
2023-11-12T08:07:13.780Z,11.69
2023-11-12T08:12:17.653Z,11.61
2023-11-12T08:17:23.102Z,11.53
2023-11-12T08:22:26.822Z,11.57
2023-11-12T08:27:30.548Z,11.45
2023-11-12T08:32:36.005Z,11.56
2023-11-12T08:37:39.810Z,11.52
2023-11-12T08:42:43.569Z,11.39
2023-11-12T08:47:48.955Z,11.42
2023-11-12T08:52:52.652Z,11.21
2023-11-12T08:57:56.432Z,11.22
2023-11-12T09:03:02.883Z,11.23
2023-11-12T09:08:07.497Z,11.16
2023-11-12T09:13:11.277Z,11.08
2023-11-12T09:18:16.627Z,10.99
2023-11-12T09:23:20.311Z,10.99
2023-11-12T09:28:24.052Z,11.04
2023-11-12T09:33:29.497Z,10.99
2023-11-12T09:38:36.367Z,11.06
2023-11-12T09:43:40.095Z,11.02
2023-11-12T09:48:45.649Z,11.08
2023-11-12T09:53:49.507Z,10.96
2023-11-12T09:58:53.227Z,10.94
2023-11-12T10:03:58.704Z,10.98
2023-11-12T10:09:02.480Z,10.88
2023-11-12T10:14:15.502Z,10.90
2023-11-12T10:19:20.853Z,10.79
2023-11-12T10:24:24.927Z,10.64
2023-11-12T10:29:28.708Z,10.59
2023-11-12T10:34:34.227Z,10.69
2023-11-12T10:39:40.207Z,10.71
2023-11-12T10:44:47.556Z,10.73
2023-11-12T10:49:53.635Z,10.76
2023-11-12T10:54:58.928Z,10.73
2023-11-12T11:00:05.426Z,10.66
2023-11-12T11:05:11.271Z,10.61
2023-11-12T11:10:15.177Z,10.63
2023-11-12T11:15:41.276Z,10.63
2023-11-12T11:21:13.954Z,10.56
2023-11-12T11:26:35.676Z,10.49
2023-11-12T11:31:40.319Z,10.34
2023-11-12T11:36:58.724Z,10.37
2023-11-12T11:42:18.637Z,10.33
2023-11-12T11:47:23.336Z,10.30
2023-11-12T11:52:29.824Z,10.37
2023-11-12T11:57:33.925Z,10.29
2023-11-12T12:02:44.710Z,10.24
2023-11-12T12:08:01.463Z,10.03
2023-11-12T12:13:08.486Z,9.97
2023-11-12T12:18:21.831Z,10.04
2023-11-12T12:23:27.841Z,9.93
2023-11-12T12:28:32.579Z,9.95
2023-11-12T12:33:36.785Z,9.81
2023-11-12T12:38:57.624Z,9.80
2023-11-12T12:44:01.510Z,9.84
2023-11-12T12:49:05.332Z,9.76
2023-11-12T12:54:11.749Z,9.93
2023-11-12T12:59:15.493Z,9.95
2023-11-12T13:04:19.271Z,10.03
2023-11-12T13:09:24.639Z,9.77
2023-11-12T13:14:28.407Z,9.68
2023-11-12T13:19:32.153Z,9.76
2023-11-12T13:24:37.531Z,9.77
2023-11-12T13:29:41.970Z,9.78
2023-11-12T13:34:45.661Z,9.76
2023-11-12T13:39:52.112Z,9.86
2023-11-12T13:44:56.344Z,9.88
2023-11-12T13:50:00.167Z,9.94
2023-11-12T13:55:06.055Z,10.02
2023-11-12T14:00:11.049Z,10.19
2023-11-12T14:05:14.792Z,10.63
2023-11-12T14:10:20.220Z,11.17
2023-11-12T14:15:24.067Z,10.89
2023-11-12T14:20:27.939Z,10.73
2023-11-12T14:25:33.323Z,10.73
2023-11-12T14:30:37.060Z,10.77
2023-11-12T14:35:40.783Z,10.70
2023-11-12T14:40:46.319Z,10.69
2023-11-12T14:45:50.250Z,10.67
2023-11-12T14:50:54.128Z,10.74
2023-11-12T14:55:59.581Z,10.74
2023-11-12T15:01:03.309Z,10.83
2023-11-12T15:06:07.460Z,10.81
2023-11-12T15:11:13.404Z,11.04
2023-11-12T15:16:20.339Z,11.25
2023-11-12T15:21:24.295Z,11.33
2023-11-12T15:26:29.753Z,11.42
2023-11-12T15:31:33.513Z,11.69
2023-11-12T15:36:37.270Z,11.98
2023-11-12T15:41:42.753Z,12.00
2023-11-12T15:46:46.542Z,12.18
2023-11-12T15:51:50.345Z,12.36
2023-11-12T15:56:56.684Z,12.75
2023-11-12T16:02:00.380Z,12.78
2023-11-12T16:07:04.211Z,12.86
2023-11-12T16:12:10.511Z,12.98
2023-11-12T16:17:14.327Z,13.47
2023-11-12T16:22:18.676Z,13.55
2023-11-12T16:27:24.073Z,13.68
2023-11-12T16:32:28.727Z,13.96
2023-11-12T16:37:32.969Z,14.24
2023-11-12T16:42:38.377Z,14.61
2023-11-12T16:47:42.306Z,15.00
2023-11-12T16:52:47.017Z,15.31
2023-11-12T16:57:52.767Z,15.74
2023-11-12T17:02:56.657Z,16.16
2023-11-12T17:08:01.504Z,16.50
2023-11-12T17:13:06.968Z,16.78
2023-11-12T17:18:10.792Z,17.01
2023-11-12T17:23:14.575Z,17.29
2023-11-12T17:28:19.939Z,17.52
2023-11-12T17:33:23.669Z,17.67
2023-11-12T17:38:27.358Z,17.89
2023-11-12T17:43:33.009Z,17.93
2023-11-12T17:48:36.053Z,17.94
2023-11-12T17:53:41.388Z,18.12
2023-11-12T17:58:46.841Z,18.16
2023-11-12T18:03:50.720Z,18.34
2023-11-12T18:08:54.602Z,18.49
2023-11-12T18:13:59.962Z,18.68
2023-11-12T18:19:03.663Z,18.74
2023-11-12T18:24:07.853Z,18.86
2023-11-12T18:29:13.266Z,19.01
2023-11-12T18:34:17.017Z,19.01
2023-11-12T18:39:20.791Z,19.15
2023-11-12T18:44:28.352Z,19.28
2023-11-12T18:49:32.083Z,19.18
2023-11-12T18:54:35.828Z,19.34
2023-11-12T18:59:41.521Z,19.32
2023-11-12T19:04:45.356Z,19.27
2023-11-12T19:09:49.091Z,19.38
2023-11-12T19:14:55.624Z,19.39
2023-11-12T19:19:59.367Z,19.61
2023-11-12T19:25:03.184Z,19.69
2023-11-12T19:30:15.165Z,19.92
2023-11-12T19:35:20.382Z,19.96
2023-11-12T19:40:24.285Z,20.02
2023-11-12T19:45:30.651Z,20.15
2023-11-12T19:50:34.417Z,20.31
2023-11-12T19:55:38.123Z,20.27
2023-11-12T20:00:43.491Z,20.30
2023-11-12T20:05:46.779Z,20.29
2023-11-12T20:10:50.609Z,20.21
2023-11-12T20:15:56.092Z,20.30
2023-11-12T20:20:59.843Z,20.35
2023-11-12T20:26:04.033Z,20.47
2023-11-12T20:31:09.629Z,20.51
2023-11-12T20:36:13.398Z,20.52
2023-11-12T20:41:17.110Z,20.55
2023-11-12T20:46:22.558Z,20.66
2023-11-12T20:51:26.388Z,20.53
2023-11-12T20:56:30.087Z,20.62
2023-11-12T21:01:39.101Z,20.64
2023-11-12T21:06:43.620Z,20.76
2023-11-12T21:11:49.094Z,20.71
2023-11-12T21:16:54.762Z,20.78
2023-11-12T21:21:58.585Z,20.85
2023-11-12T21:27:02.290Z,20.75
2023-11-12T21:32:08.266Z,20.78
2023-11-12T21:37:12.016Z,20.71
2023-11-12T21:42:15.738Z,20.63
2023-11-12T21:47:21.907Z,20.73
2023-11-12T21:52:25.625Z,20.71
2023-11-12T21:57:29.322Z,20.73
2023-11-12T22:02:34.685Z,20.60
2023-11-12T22:07:37.634Z,20.53
2023-11-12T22:12:41.382Z,20.53
2023-11-12T22:17:47.795Z,20.47
2023-11-12T22:22:51.531Z,20.46
2023-11-12T22:27:55.253Z,20.54
2023-11-12T22:33:01.681Z,20.43
2023-11-12T22:38:05.391Z,20.39
2023-11-12T22:43:09.126Z,20.38
2023-11-12T22:48:14.506Z,20.36
2023-11-12T22:53:17.462Z,20.22
2023-11-12T22:58:21.321Z,20.06
2023-11-12T23:03:28.180Z,20.09
2023-11-12T23:08:31.944Z,20.09
2023-11-12T23:13:35.693Z,20.00
2023-11-12T23:18:41.044Z,19.93
2023-11-12T23:23:44.760Z,19.82
2023-11-12T23:28:48.534Z,19.68
2023-11-12T23:33:54.007Z,19.69
2023-11-12T23:38:57.898Z,19.57
2023-11-12T23:44:01.807Z,19.49
2023-11-12T23:49:07.272Z,19.30
2023-11-12T23:54:10.242Z,19.09
2023-11-12T23:59:14.060Z,18.98
